Indianapolis, Indiana
Current Conditions -  °F | °C
As of 10:54 AM on Friday 21 Nov 2014 (Local Time) from KIND Reporting Station
Clear Clear  
Wind Chill: 16°   Ceiling: Unl
Heat Index: 24°   Visibility: 10mi
Dew Point: 10°   Wind: 7mph
Humidity: 55%   Direction: 100°E
Pressure: 30.49"   Gusts: NA
Location:  39.77°N, 86.15°W
Report Text: KIND 211554Z 10006KT 10SM CLR M04/M12 A3049 RMK AO2 SLP337 T10441122
Loading
Personal Weather Stations






























Interactive Weather Map New forecast layout! Learn more

10-Day Weather Forecast

Advertisements
Track Severe Weather on mobile